sensor_id;sensor_type;location;lat;lon;timestamp;pressure;altitude;pressure_sealevel;temperature;humidity
48424;BME280;34232;42.502;26.014;2023-03-14T00:02:07;100578.03;;;3.94;58.93
48424;BME280;34232;42.502;26.014;2023-03-14T00:04:32;100571.84;;;3.97;58.79
48424;BME280;34232;42.502;26.014;2023-03-14T00:06:57;100575.94;;;4.02;58.41
48424;BME280;34232;42.502;26.014;2023-03-14T00:09:23;100573.94;;;4.07;57.12
48424;BME280;34232;42.502;26.014;2023-03-14T00:11:48;100572.44;;;4.03;57.71
48424;BME280;34232;42.502;26.014;2023-03-14T00:14:13;100574.53;;;3.95;57.61
48424;BME280;34232;42.502;26.014;2023-03-14T00:16:40;100567.75;;;3.91;57.46
48424;BME280;34232;42.502;26.014;2023-03-14T00:19:06;100567.16;;;3.86;57.67
48424;BME280;34232;42.502;26.014;2023-03-14T00:21:31;100567.16;;;3.86;57.79
48424;BME280;34232;42.502;26.014;2023-03-14T00:23:56;100554.00;;;3.89;57.69
48424;BME280;34232;42.502;26.014;2023-03-14T00:26:21;100562.41;;;3.94;57.68
48424;BME280;34232;42.502;26.014;2023-03-14T00:28:47;100558.13;;;3.93;56.77
48424;BME280;34232;42.502;26.014;2023-03-14T00:31:15;100561.03;;;3.87;56.15
48424;BME280;34232;42.502;26.014;2023-03-14T00:33:41;100552.59;;;3.82;56.42
48424;BME280;34232;42.502;26.014;2023-03-14T00:36:07;100553.88;;;3.73;57.11
48424;BME280;34232;42.502;26.014;2023-03-14T00:38:34;100555.84;;;3.68;57.28
48424;BME280;34232;42.502;26.014;2023-03-14T00:40:59;100547.50;;;3.60;57.41
48424;BME280;34232;42.502;26.014;2023-03-14T00:43:27;100543.53;;;3.53;57.58
48424;BME280;34232;42.502;26.014;2023-03-14T00:45:52;100542.03;;;3.47;57.92
48424;BME280;34232;42.502;26.014;2023-03-14T00:48:19;100539.69;;;3.41;58.60
48424;BME280;34232;42.502;26.014;2023-03-14T00:50:44;100538.09;;;3.39;58.71
48424;BME280;34232;42.502;26.014;2023-03-14T00:53:09;100539.22;;;3.33;59.14
48424;BME280;34232;42.502;26.014;2023-03-14T00:55:38;100530.75;;;3.28;59.25
48424;BME280;34232;42.502;26.014;2023-03-14T00:58:04;100532.88;;;3.20;59.25
48424;BME280;34232;42.502;26.014;2023-03-14T01:00:29;100528.44;;;3.22;59.51
48424;BME280;34232;42.502;26.014;2023-03-14T01:02:54;100526.53;;;3.26;58.94
48424;BME280;34232;42.502;26.014;2023-03-14T01:05:21;100530.63;;;3.31;59.38
48424;BME280;34232;42.502;26.014;2023-03-14T01:07:46;100524.25;;;3.38;59.41
48424;BME280;34232;42.502;26.014;2023-03-14T01:10:11;100523.16;;;3.42;59.56
48424;BME280;34232;42.502;26.014;2023-03-14T01:12:37;100520.44;;;3.45;59.62
48424;BME280;34232;42.502;26.014;2023-03-14T01:15:02;100516.72;;;3.51;58.69
48424;BME280;34232;42.502;26.014;2023-03-14T01:17:27;100522.75;;;3.51;57.36
48424;BME280;34232;42.502;26.014;2023-03-14T01:19:53;100521.22;;;3.47;56.92
48424;BME280;34232;42.502;26.014;2023-03-14T01:22:21;100519.66;;;3.43;57.48
48424;BME280;34232;42.502;26.014;2023-03-14T01:24:46;100510.53;;;3.35;58.59
48424;BME280;34232;42.502;26.014;2023-03-14T01:27:12;100513.19;;;3.33;59.01
48424;BME280;34232;42.502;26.014;2023-03-14T01:29:37;100506.28;;;3.32;58.50
48424;BME280;34232;42.502;26.014;2023-03-14T01:32:03;100499.41;;;3.31;58.73
48424;BME280;34232;42.502;26.014;2023-03-14T01:34:28;100498.91;;;3.23;59.34
48424;BME280;34232;42.502;26.014;2023-03-14T01:36:54;100489.56;;;3.19;59.21
48424;BME280;34232;42.502;26.014;2023-03-14T01:39:19;100496.59;;;3.17;59.37
48424;BME280;34232;42.502;26.014;2023-03-14T01:41:44;100485.66;;;3.09;58.18
48424;BME280;34232;42.502;26.014;2023-03-14T01:44:10;100483.22;;;3.06;58.23
48424;BME280;34232;42.502;26.014;2023-03-14T01:51:41;100474.78;;;3.01;58.90
48424;BME280;34232;42.502;26.014;2023-03-14T01:54:21;100469.84;;;2.95;59.33
48424;BME280;34232;42.502;26.014;2023-03-14T01:56:50;100473.69;;;2.86;60.01
48424;BME280;34232;42.502;26.014;2023-03-14T01:59:17;100477.69;;;2.74;59.85
48424;BME280;34232;42.502;26.014;2023-03-14T02:01:43;100469.22;;;2.69;60.32
48424;BME280;34232;42.502;26.014;2023-03-14T02:04:09;100471.06;;;2.67;60.33
48424;BME280;34232;42.502;26.014;2023-03-14T02:06:39;100470.28;;;2.65;60.55
48424;BME280;34232;42.502;26.014;2023-03-14T02:09:06;100480.94;;;2.59;60.97
48424;BME280;34232;42.502;26.014;2023-03-14T02:11:31;100478.59;;;2.53;61.75
48424;BME280;34232;42.502;26.014;2023-03-14T02:13:57;100471.72;;;2.52;61.68
48424;BME280;34232;42.502;26.014;2023-03-14T02:16:23;100474.63;;;2.44;62.74
48424;BME280;34232;42.502;26.014;2023-03-14T02:18:49;100478.91;;;2.45;63.17
48424;BME280;34232;42.502;26.014;2023-03-14T02:21:20;100481.66;;;2.42;63.18
48424;BME280;34232;42.502;26.014;2023-03-14T02:29:20;100487.53;;;2.46;61.63
48424;BME280;34232;42.502;26.014;2023-03-14T02:31:45;100492.34;;;2.35;61.54
48424;BME280;34232;42.502;26.014;2023-03-14T02:34:11;100478.97;;;2.24;61.23
48424;BME280;34232;42.502;26.014;2023-03-14T02:36:36;100478.56;;;2.13;61.95
48424;BME280;34232;42.502;26.014;2023-03-14T02:39:07;100479.78;;;2.04;61.83
48424;BME280;34232;42.502;26.014;2023-03-14T02:41:33;100480.63;;;2.04;62.49
48424;BME280;34232;42.502;26.014;2023-03-14T02:43:58;100481.41;;;2.06;60.86
48424;BME280;34232;42.502;26.014;2023-03-14T02:46:24;100487.75;;;1.99;61.58
48424;BME280;34232;42.502;26.014;2023-03-14T02:51:14;100478.81;;;2.06;62.75
48424;BME280;34232;42.502;26.014;2023-03-14T02:53:40;100478.56;;;2.13;62.16
48424;BME280;34232;42.502;26.014;2023-03-14T02:56:06;100481.03;;;2.16;62.25
48424;BME280;34232;42.502;26.014;2023-03-14T02:58:32;100488.69;;;2.19;61.53
48424;BME280;34232;42.502;26.014;2023-03-14T03:00:57;100482.41;;;2.24;61.23
48424;BME280;34232;42.502;26.014;2023-03-14T03:03:22;100485.59;;;2.31;60.76
48424;BME280;34232;42.502;26.014;2023-03-14T03:05:49;100472.72;;;2.28;60.60
48424;BME280;34232;42.502;26.014;2023-03-14T03:08:15;100470.22;;;2.26;60.26
48424;BME280;34232;42.502;26.014;2023-03-14T03:10:40;100473.00;;;2.22;59.35
48424;BME280;34232;42.502;26.014;2023-03-14T03:13:05;100477.13;;;2.05;59.87
48424;BME280;34232;42.502;26.014;2023-03-14T03:15:31;100475.03;;;1.93;60.66
48424;BME280;34232;42.502;26.014;2023-03-14T03:17:56;100463.16;;;1.88;61.56
48424;BME280;34232;42.502;26.014;2023-03-14T03:20:21;100469.28;;;1.85;62.02
48424;BME280;34232;42.502;26.014;2023-03-14T03:22:46;100468.38;;;1.86;62.32
48424;BME280;34232;42.502;26.014;2023-03-14T03:25:12;100465.91;;;1.83;61.76
48424;BME280;34232;42.502;26.014;2023-03-14T03:27:37;100467.59;;;1.84;62.29
48424;BME280;34232;42.502;26.014;2023-03-14T03:30:03;100465.78;;;1.86;62.87
48424;BME280;34232;42.502;26.014;2023-03-14T03:32:29;100462.19;;;1.90;62.81
48424;BME280;34232;42.502;26.014;2023-03-14T03:34:54;100462.25;;;1.89;62.05
48424;BME280;34232;42.502;26.014;2023-03-14T03:37:19;100460.59;;;1.86;62.19
48424;BME280;34232;42.502;26.014;2023-03-14T03:39:49;100457.28;;;1.83;62.08
48424;BME280;34232;42.502;26.014;2023-03-14T03:42:14;100452.16;;;1.81;62.28
48424;BME280;34232;42.502;26.014;2023-03-14T03:44:39;100452.28;;;1.78;62.35
48424;BME280;34232;42.502;26.014;2023-03-14T03:47:05;100458.44;;;1.75;62.60
48424;BME280;34232;42.502;26.014;2023-03-14T03:49:31;100457.94;;;1.66;62.81
48424;BME280;34232;42.502;26.014;2023-03-14T03:51:56;100460.00;;;1.58;63.85
48424;BME280;34232;42.502;26.014;2023-03-14T03:54:21;100456.63;;;1.56;63.66
48424;BME280;34232;42.502;26.014;2023-03-14T03:56:47;100460.25;;;1.52;63.66
48424;BME280;34232;42.502;26.014;2023-03-14T03:59:12;100454.16;;;1.53;63.72
48424;BME280;34232;42.502;26.014;2023-03-14T04:01:37;100458.53;;;1.51;63.56
48424;BME280;34232;42.502;26.014;2023-03-14T04:04:02;100455.94;;;1.51;64.13
48424;BME280;34232;42.502;26.014;2023-03-14T04:06:28;100451.63;;;1.51;65.13
48424;BME280;34232;42.502;26.014;2023-03-14T04:08:53;100449.97;;;1.49;65.03
48424;BME280;34232;42.502;26.014;2023-03-14T04:11:19;100452.50;;;1.50;65.22
48424;BME280;34232;42.502;26.014;2023-03-14T04:13:47;100455.06;;;1.52;64.72
48424;BME280;34232;42.502;26.014;2023-03-14T04:16:20;100450.22;;;1.43;65.45
48424;BME280;34232;42.502;26.014;2023-03-14T04:18:45;100460.81;;;1.36;65.29
48424;BME280;34232;42.502;26.014;2023-03-14T04:21:11;100459.13;;;1.35;65.21
48424;BME280;34232;42.502;26.014;2023-03-14T04:23:36;100463.53;;;1.33;65.57
48424;BME280;34232;42.502;26.014;2023-03-14T04:26:02;100461.84;;;1.32;65.94
48424;BME280;34232;42.502;26.014;2023-03-14T04:28:27;100459.94;;;1.37;65.85
48424;BME280;34232;42.502;26.014;2023-03-14T04:30:52;100456.44;;;1.38;65.65
48424;BME280;34232;42.502;26.014;2023-03-14T04:33:18;100458.91;;;1.42;66.29
48424;BME280;34232;42.502;26.014;2023-03-14T04:35:43;100462.16;;;1.47;66.12
48424;BME280;34232;42.502;26.014;2023-03-14T04:38:09;100464.75;;;1.47;64.96
48424;BME280;34232;42.502;26.014;2023-03-14T04:40:36;100457.22;;;1.40;64.91
48424;BME280;34232;42.502;26.014;2023-03-14T04:43:01;100462.75;;;1.31;65.56
48424;BME280;34232;42.502;26.014;2023-03-14T04:45:26;100452.47;;;1.30;65.53
48424;BME280;34232;42.502;26.014;2023-03-14T04:47:52;100447.31;;;1.28;65.86
48424;BME280;34232;42.502;26.014;2023-03-14T04:50:17;100452.50;;;1.28;65.77
48424;BME280;34232;42.502;26.014;2023-03-14T04:52:42;100449.13;;;1.26;64.91
48424;BME280;34232;42.502;26.014;2023-03-14T04:55:07;100450.81;;;1.27;65.45
48424;BME280;34232;42.502;26.014;2023-03-14T04:57:33;100447.19;;;1.31;65.33
48424;BME280;34232;42.502;26.014;2023-03-14T04:59:58;100436.94;;;1.28;66.09
48424;BME280;34232;42.502;26.014;2023-03-14T05:02:23;100440.19;;;1.33;66.20
48424;BME280;34232;42.502;26.014;2023-03-14T05:04:48;100446.59;;;1.47;65.99
48424;BME280;34232;42.502;26.014;2023-03-14T05:07:14;100450.53;;;1.57;65.80
48424;BME280;34232;42.502;26.014;2023-03-14T05:09:39;100447.69;;;1.63;66.18
48424;BME280;34232;42.502;26.014;2023-03-14T05:12:04;100448.91;;;1.76;66.45
48424;BME280;34232;42.502;26.014;2023-03-14T05:14:30;100442.31;;;1.89;66.07
48424;BME280;34232;42.502;26.014;2023-03-14T05:16:56;100441.63;;;2.06;65.40
48424;BME280;34232;42.502;26.014;2023-03-14T05:19:21;100445.34;;;2.21;65.21
48424;BME280;34232;42.502;26.014;2023-03-14T05:21:46;100446.50;;;2.34;64.79
48424;BME280;34232;42.502;26.014;2023-03-14T05:24:11;100451.47;;;2.40;65.36
48424;BME280;34232;42.502;26.014;2023-03-14T05:26:37;100453.41;;;2.35;65.81
48424;BME280;34232;42.502;26.014;2023-03-14T05:29:02;100452.03;;;2.46;66.88
48424;BME280;34232;42.502;26.014;2023-03-14T05:31:27;100452.38;;;2.59;66.48
48424;BME280;34232;42.502;26.014;2023-03-14T05:33:52;100449.66;;;2.61;66.47
48424;BME280;34232;42.502;26.014;2023-03-14T05:36:18;100450.00;;;2.73;65.84
48424;BME280;34232;42.502;26.014;2023-03-14T05:38:43;100452.25;;;2.81;66.08
48424;BME280;34232;42.502;26.014;2023-03-14T05:41:08;100448.41;;;2.90;65.73
48424;BME280;34232;42.502;26.014;2023-03-14T05:43:34;100455.94;;;3.14;65.24
48424;BME280;34232;42.502;26.014;2023-03-14T05:45:59;100452.84;;;3.25;64.84
48424;BME280;34232;42.502;26.014;2023-03-14T05:48:24;100454.53;;;3.26;64.59
48424;BME280;34232;42.502;26.014;2023-03-14T05:50:56;100453.56;;;3.29;64.39
48424;BME280;34232;42.502;26.014;2023-03-14T05:53:22;100443.00;;;3.32;64.12
48424;BME280;34232;42.502;26.014;2023-03-14T05:55:47;100446.13;;;3.21;64.52
48424;BME280;34232;42.502;26.014;2023-03-14T05:58:12;100439.44;;;3.34;64.75
48424;BME280;34232;42.502;26.014;2023-03-14T06:00:37;100444.13;;;3.45;64.52
48424;BME280;34232;42.502;26.014;2023-03-14T06:03:03;100441.72;;;3.59;64.74
48424;BME280;34232;42.502;26.014;2023-03-14T06:05:28;100433.22;;;3.56;64.60
48424;BME280;34232;42.502;26.014;2023-03-14T06:07:53;100444.56;;;3.55;64.44
48424;BME280;34232;42.502;26.014;2023-03-14T06:10:18;100439.31;;;3.73;64.41
48424;BME280;34232;42.502;26.014;2023-03-14T06:12:44;100440.94;;;3.93;63.57
48424;BME280;34232;42.502;26.014;2023-03-14T06:15:09;100449.53;;;3.95;63.71
48424;BME280;34232;42.502;26.014;2023-03-14T06:17:35;100446.50;;;4.21;63.13
48424;BME280;34232;42.502;26.014;2023-03-14T06:20:00;100436.44;;;4.31;62.74
48424;BME280;34232;42.502;26.014;2023-03-14T06:22:25;100441.56;;;4.50;62.07
48424;BME280;34232;42.502;26.014;2023-03-14T06:24:51;100439.84;;;4.66;62.05
48424;BME280;34232;42.502;26.014;2023-03-14T06:27:16;100439.81;;;4.83;62.34
48424;BME280;34232;42.502;26.014;2023-03-14T06:29:41;100446.94;;;5.13;61.47
48424;BME280;34232;42.502;26.014;2023-03-14T06:32:06;100440.72;;;5.31;60.12
48424;BME280;34232;42.502;26.014;2023-03-14T06:34:32;100450.16;;;5.49;59.02
48424;BME280;34232;42.502;26.014;2023-03-14T06:36:57;100450.47;;;5.75;58.84
48424;BME280;34232;42.502;26.014;2023-03-14T06:39:22;100445.78;;;5.97;57.57
48424;BME280;34232;42.502;26.014;2023-03-14T06:41:48;100439.84;;;6.09;58.59
48424;BME280;34232;42.502;26.014;2023-03-14T06:44:13;100438.22;;;6.37;57.83
48424;BME280;34232;42.502;26.014;2023-03-14T06:46:38;100437.88;;;6.57;56.42
48424;BME280;34232;42.502;26.014;2023-03-14T06:49:03;100439.75;;;6.83;55.64
48424;BME280;34232;42.502;26.014;2023-03-14T06:51:29;100444.44;;;7.07;55.41
48424;BME280;34232;42.502;26.014;2023-03-14T06:53:54;100436.19;;;7.27;54.36
48424;BME280;34232;42.502;26.014;2023-03-14T06:56:19;100449.28;;;7.41;54.63
48424;BME280;34232;42.502;26.014;2023-03-14T06:58:44;100452.56;;;7.71;53.22
48424;BME280;34232;42.502;26.014;2023-03-14T07:01:28;100432.09;;;7.91;52.63
48424;BME280;34232;42.502;26.014;2023-03-14T07:03:54;100435.31;;;8.21;51.24
48424;BME280;34232;42.502;26.014;2023-03-14T07:06:20;100428.13;;;8.37;51.79
48424;BME280;34232;42.502;26.014;2023-03-14T07:08:46;100429.22;;;8.08;51.28
48424;BME280;34232;42.502;26.014;2023-03-14T07:11:11;100423.81;;;8.36;51.17
48424;BME280;34232;42.502;26.014;2023-03-14T07:13:37;100421.50;;;8.45;51.33
48424;BME280;34232;42.502;26.014;2023-03-14T07:16:03;100419.66;;;8.72;50.25
48424;BME280;34232;42.502;26.014;2023-03-14T07:18:28;100422.16;;;8.35;49.89
48424;BME280;34232;42.502;26.014;2023-03-14T07:20:54;100417.84;;;8.47;49.48
48424;BME280;34232;42.502;26.014;2023-03-14T07:23:19;100406.31;;;8.75;49.53
48424;BME280;34232;42.502;26.014;2023-03-14T07:25:45;100407.78;;;8.92;49.34
48424;BME280;34232;42.502;26.014;2023-03-14T07:28:13;100409.34;;;8.69;49.29
48424;BME280;34232;42.502;26.014;2023-03-14T07:30:38;100402.09;;;8.85;49.33
48424;BME280;34232;42.502;26.014;2023-03-14T07:33:03;100405.31;;;9.14;48.65
48424;BME280;34232;42.502;26.014;2023-03-14T07:35:29;100400.84;;;9.40;48.19
48424;BME280;34232;42.502;26.014;2023-03-14T07:37:54;100399.25;;;9.61;48.15
48424;BME280;34232;42.502;26.014;2023-03-14T07:40:19;100404.41;;;9.87;48.33
48424;BME280;34232;42.502;26.014;2023-03-14T07:42:44;100397.69;;;10.06;46.70
48424;BME280;34232;42.502;26.014;2023-03-14T07:45:10;100392.28;;;10.08;47.22
48424;BME280;34232;42.502;26.014;2023-03-14T07:47:35;100394.88;;;9.97;48.44
48424;BME280;34232;42.502;26.014;2023-03-14T07:50:01;100389.19;;;10.03;49.01
48424;BME280;34232;42.502;26.014;2023-03-14T07:52:26;100390.38;;;10.10;48.55
48424;BME280;34232;42.502;26.014;2023-03-14T07:54:51;100390.16;;;10.13;48.16
48424;BME280;34232;42.502;26.014;2023-03-14T07:57:17;100387.13;;;10.41;49.22
48424;BME280;34232;42.502;26.014;2023-03-14T07:59:42;100384.25;;;10.22;49.32
48424;BME280;34232;42.502;26.014;2023-03-14T08:02:10;100384.50;;;10.30;48.41
48424;BME280;34232;42.502;26.014;2023-03-14T08:04:36;100379.97;;;10.32;48.35
48424;BME280;34232;42.502;26.014;2023-03-14T08:07:02;100375.44;;;10.45;47.95
48424;BME280;34232;42.502;26.014;2023-03-14T08:09:28;100371.84;;;10.46;48.52
48424;BME280;34232;42.502;26.014;2023-03-14T08:11:53;100365.84;;;10.44;47.22
48424;BME280;34232;42.502;26.014;2023-03-14T08:14:18;100365.84;;;10.56;45.93
48424;BME280;34232;42.502;26.014;2023-03-14T08:16:44;100359.41;;;10.93;44.50
48424;BME280;34232;42.502;26.014;2023-03-14T08:19:09;100358.81;;;11.01;44.73
48424;BME280;34232;42.502;26.014;2023-03-14T08:21:34;100351.97;;;10.98;43.86
48424;BME280;34232;42.502;26.014;2023-03-14T08:23:59;100345.25;;;11.16;43.18
48424;BME280;34232;42.502;26.014;2023-03-14T08:26:33;100346.19;;;11.27;43.20
48424;BME280;34232;42.502;26.014;2023-03-14T08:28:58;100352.16;;;11.29;43.29
48424;BME280;34232;42.502;26.014;2023-03-14T08:31:26;100337.66;;;11.66;42.72
48424;BME280;34232;42.502;26.014;2023-03-14T08:33:51;100330.13;;;11.94;41.82
48424;BME280;34232;42.502;26.014;2023-03-14T08:36:18;100332.31;;;12.30;41.51
48424;BME280;34232;42.502;26.014;2023-03-14T08:38:44;100329.22;;;12.25;38.86
48424;BME280;34232;42.502;26.014;2023-03-14T08:41:09;100331.78;;;12.36;39.18
48424;BME280;34232;42.502;26.014;2023-03-14T08:43:35;100326.84;;;12.52;39.63
48424;BME280;34232;42.502;26.014;2023-03-14T08:46:00;100315.41;;;12.73;39.14
48424;BME280;34232;42.502;26.014;2023-03-14T08:48:26;100320.78;;;12.61;38.60
48424;BME280;34232;42.502;26.014;2023-03-14T08:50:51;100311.34;;;12.69;38.20
48424;BME280;34232;42.502;26.014;2023-03-14T08:53:16;100313.28;;;12.67;38.25
48424;BME280;34232;42.502;26.014;2023-03-14T08:55:42;100312.19;;;13.09;37.44
48424;BME280;34232;42.502;26.014;2023-03-14T08:58:07;100302.09;;;13.43;36.46
48424;BME280;34232;42.502;26.014;2023-03-14T09:00:32;100301.94;;;13.54;34.98
48424;BME280;34232;42.502;26.014;2023-03-14T09:02:57;100295.91;;;13.14;35.45
48424;BME280;34232;42.502;26.014;2023-03-14T09:05:23;100289.53;;;13.16;35.04
48424;BME280;34232;42.502;26.014;2023-03-14T09:07:48;100286.50;;;13.30;34.80
48424;BME280;34232;42.502;26.014;2023-03-14T09:10:13;100282.88;;;13.41;34.39
48424;BME280;34232;42.502;26.014;2023-03-14T09:12:38;100276.06;;;13.39;34.68
48424;BME280;34232;42.502;26.014;2023-03-14T09:15:04;100273.97;;;13.52;33.76
48424;BME280;34232;42.502;26.014;2023-03-14T09:17:29;100272.53;;;13.09;33.88
48424;BME280;34232;42.502;26.014;2023-03-14T09:19:54;100272.09;;;13.04;33.35
48424;BME280;34232;42.502;26.014;2023-03-14T09:22:20;100256.13;;;13.15;32.86
48424;BME280;34232;42.502;26.014;2023-03-14T09:24:46;100260.06;;;13.40;31.83
48424;BME280;34232;42.502;26.014;2023-03-14T09:27:11;100255.03;;;13.66;31.34
48424;BME280;34232;42.502;26.014;2023-03-14T09:29:36;100251.13;;;13.70;31.01
48424;BME280;34232;42.502;26.014;2023-03-14T09:32:02;100246.78;;;13.88;31.47
48424;BME280;34232;42.502;26.014;2023-03-14T09:34:28;100243.25;;;14.07;30.49
48424;BME280;34232;42.502;26.014;2023-03-14T09:36:53;100242.91;;;14.20;31.41
48424;BME280;34232;42.502;26.014;2023-03-14T09:39:18;100233.88;;;14.59;30.66
48424;BME280;34232;42.502;26.014;2023-03-14T09:41:44;100230.72;;;14.74;30.86
48424;BME280;34232;42.502;26.014;2023-03-14T09:44:15;100224.50;;;14.83;31.04
48424;BME280;34232;42.502;26.014;2023-03-14T09:46:42;100223.63;;;14.92;30.61
48424;BME280;34232;42.502;26.014;2023-03-14T09:49:10;100221.78;;;14.75;30.86
48424;BME280;34232;42.502;26.014;2023-03-14T09:51:36;100224.63;;;14.63;31.31
48424;BME280;34232;42.502;26.014;2023-03-14T09:54:02;100208.19;;;15.05;30.02
48424;BME280;34232;42.502;26.014;2023-03-14T09:56:30;100201.34;;;15.20;28.82
48424;BME280;34232;42.502;26.014;2023-03-14T09:58:57;100194.69;;;15.16;28.91
48424;BME280;34232;42.502;26.014;2023-03-14T10:01:28;100197.19;;;15.35;29.38
48424;BME280;34232;42.502;26.014;2023-03-14T10:03:54;100193.13;;;15.67;27.90
48424;BME280;34232;42.502;26.014;2023-03-14T10:06:20;100190.59;;;15.57;29.55
48424;BME280;34232;42.502;26.014;2023-03-14T10:08:46;100181.78;;;15.83;28.48
48424;BME280;34232;42.502;26.014;2023-03-14T10:11:13;100179.69;;;15.94;29.33
48424;BME280;34232;42.502;26.014;2023-03-14T10:13:46;100181.66;;;16.26;28.81
48424;BME280;34232;42.502;26.014;2023-03-14T10:16:12;100168.63;;;16.49;29.05
48424;BME280;34232;42.502;26.014;2023-03-14T10:18:38;100165.38;;;16.63;27.77
48424;BME280;34232;42.502;26.014;2023-03-14T10:21:21;100169.53;;;16.24;27.59
48424;BME280;34232;42.502;26.014;2023-03-14T10:23:46;100161.78;;;15.96;28.25
48424;BME280;34232;42.502;26.014;2023-03-14T10:26:13;100152.97;;;15.96;28.95
48424;BME280;34232;42.502;26.014;2023-03-14T10:31:09;100155.84;;;15.51;29.24
48424;BME280;34232;42.502;26.014;2023-03-14T10:33:35;100146.59;;;15.55;29.63
48424;BME280;34232;42.502;26.014;2023-03-14T10:36:03;100141.50;;;15.87;30.23
48424;BME280;34232;42.502;26.014;2023-03-14T10:38:29;100138.88;;;15.95;30.05
48424;BME280;34232;42.502;26.014;2023-03-14T10:40:55;100132.25;;;15.65;29.82
48424;BME280;34232;42.502;26.014;2023-03-14T10:43:34;100127.75;;;15.66;30.60
48424;BME280;34232;42.502;26.014;2023-03-14T10:46:01;100120.66;;;16.00;29.43
48424;BME280;34232;42.502;26.014;2023-03-14T10:48:34;100112.28;;;15.87;30.40
48424;BME280;34232;42.502;26.014;2023-03-14T10:51:19;100110.41;;;15.54;29.89
48424;BME280;34232;42.502;26.014;2023-03-14T10:56:14;100086.53;;;16.22;28.53
48424;BME280;34232;42.502;26.014;2023-03-14T10:58:44;100075.47;;;16.59;28.25
48424;BME280;34232;42.502;26.014;2023-03-14T11:03:49;100068.47;;;16.50;28.52
48424;BME280;34232;42.502;26.014;2023-03-14T11:06:25;100063.72;;;16.69;28.77
48424;BME280;34232;42.502;26.014;2023-03-14T11:11:41;100051.22;;;16.54;27.93
48424;BME280;34232;42.502;26.014;2023-03-14T11:19:18;100031.81;;;17.02;27.01
48424;BME280;34232;42.502;26.014;2023-03-14T11:32:01;99992.06;;;16.19;27.13
48424;BME280;34232;42.502;26.014;2023-03-14T11:37:04;99974.28;;;16.28;27.96
48424;BME280;34232;42.502;26.014;2023-03-14T11:39:40;99976.63;;;16.23;28.98
48424;BME280;34232;42.502;26.014;2023-03-14T11:42:08;99964.28;;;15.89;27.94
48424;BME280;34232;42.502;26.014;2023-03-14T11:44:39;99960.63;;;15.82;28.25
48424;BME280;34232;42.502;26.014;2023-03-14T11:47:07;99959.97;;;15.96;27.84
48424;BME280;34232;42.502;26.014;2023-03-14T11:49:40;99951.69;;;16.07;27.66
48424;BME280;34232;42.502;26.014;2023-03-14T11:52:31;99952.03;;;16.04;28.32
48424;BME280;34232;42.502;26.014;2023-03-14T11:57:26;99934.75;;;16.08;28.83
48424;BME280;34232;42.502;26.014;2023-03-14T11:59:58;99937.59;;;16.15;28.36
48424;BME280;34232;42.502;26.014;2023-03-14T12:07:37;99906.88;;;16.53;26.36
48424;BME280;34232;42.502;26.014;2023-03-14T12:10:06;99899.72;;;16.45;25.57
48424;BME280;34232;42.502;26.014;2023-03-14T12:12:31;99899.75;;;16.54;25.59
48424;BME280;34232;42.502;26.014;2023-03-14T12:14:58;99894.59;;;16.12;25.49
48424;BME280;34232;42.502;26.014;2023-03-14T12:17:25;99889.63;;;16.25;23.84
48424;BME280;34232;42.502;26.014;2023-03-14T12:20:04;99880.31;;;16.45;24.02
48424;BME280;34232;42.502;26.014;2023-03-14T12:22:33;99871.84;;;16.50;24.43
48424;BME280;34232;42.502;26.014;2023-03-14T12:35:38;99863.88;;;16.25;25.84
48424;BME280;34232;42.502;26.014;2023-03-14T12:38:09;99859.91;;;16.13;25.40
48424;BME280;34232;42.502;26.014;2023-03-14T12:40:41;99856.75;;;15.93;26.95
48424;BME280;34232;42.502;26.014;2023-03-14T12:43:33;99850.75;;;15.75;26.33
48424;BME280;34232;42.502;26.014;2023-03-14T12:46:08;99842.31;;;15.71;24.94
48424;BME280;34232;42.502;26.014;2023-03-14T12:48:34;99841.81;;;15.92;23.95
48424;BME280;34232;42.502;26.014;2023-03-14T12:51:03;99838.66;;;16.13;22.93
48424;BME280;34232;42.502;26.014;2023-03-14T12:53:42;99838.16;;;16.26;23.89
48424;BME280;34232;42.502;26.014;2023-03-14T12:58:57;99825.91;;;16.00;22.50
48424;BME280;34232;42.502;26.014;2023-03-14T13:01:25;99814.94;;;15.79;22.06
48424;BME280;34232;42.502;26.014;2023-03-14T13:03:57;99813.28;;;15.78;21.22
48424;BME280;34232;42.502;26.014;2023-03-14T13:11:50;99796.34;;;16.12;22.42
48424;BME280;34232;42.502;26.014;2023-03-14T13:14:16;99791.34;;;16.17;23.27
48424;BME280;34232;42.502;26.014;2023-03-14T13:16:41;99787.72;;;16.18;24.67
48424;BME280;34232;42.502;26.014;2023-03-14T13:19:15;99786.91;;;16.01;23.97
48424;BME280;34232;42.502;26.014;2023-03-14T13:21:43;99779.09;;;15.99;24.43
48424;BME280;34232;42.502;26.014;2023-03-14T13:24:22;99775.25;;;16.18;24.49
48424;BME280;34232;42.502;26.014;2023-03-14T13:26:48;99773.75;;;16.16;24.33
48424;BME280;34232;42.502;26.014;2023-03-14T13:31:45;99764.59;;;16.26;24.56
48424;BME280;34232;42.502;26.014;2023-03-14T13:34:11;99755.50;;;16.21;24.57
48424;BME280;34232;42.502;26.014;2023-03-14T13:36:36;99757.81;;;16.16;25.23
48424;BME280;34232;42.502;26.014;2023-03-14T13:39:02;99746.94;;;15.86;25.02
48424;BME280;34232;42.502;26.014;2023-03-14T13:41:29;99736.31;;;15.86;25.37
48424;BME280;34232;42.502;26.014;2023-03-14T13:44:02;99733.63;;;15.94;25.67
48424;BME280;34232;42.502;26.014;2023-03-14T13:46:28;99736.00;;;15.73;25.48
48424;BME280;34232;42.502;26.014;2023-03-14T13:48:55;99724.38;;;15.66;25.06
48424;BME280;34232;42.502;26.014;2023-03-14T13:51:21;99719.06;;;15.66;25.86
48424;BME280;34232;42.502;26.014;2023-03-14T13:53:48;99710.75;;;15.77;25.44
48424;BME280;34232;42.502;26.014;2023-03-14T13:56:14;99716.09;;;15.61;25.05